sensor_id;sensor_type;location;lat;lon;timestamp;P1;durP1;ratioP1;P2;durP2;ratioP2
76204;SDS011;64986;55.672;37.628;2023-05-23T00:00:32;15.60;;;6.20;;
76204;SDS011;64986;55.672;37.628;2023-05-23T00:02:57;13.45;;;7.05;;
76204;SDS011;64986;55.672;37.628;2023-05-23T00:05:24;14.70;;;6.97;;
76204;SDS011;64986;55.672;37.628;2023-05-23T00:07:51;16.52;;;9.40;;
76204;SDS011;64986;55.672;37.628;2023-05-23T00:10:16;17.83;;;8.20;;
76204;SDS011;64986;55.672;37.628;2023-05-23T00:12:42;14.48;;;8.35;;
76204;SDS011;64986;55.672;37.628;2023-05-23T00:15:07;14.63;;;8.52;;
76204;SDS011;64986;55.672;37.628;2023-05-23T00:17:34;19.42;;;9.23;;
76204;SDS011;64986;55.672;37.628;2023-05-23T00:20:03;15.55;;;7.80;;
76204;SDS011;64986;55.672;37.628;2023-05-23T00:22:36;17.95;;;7.70;;
76204;SDS011;64986;55.672;37.628;2023-05-23T00:25:09;15.88;;;8.32;;
76204;SDS011;64986;55.672;37.628;2023-05-23T00:27:35;11.55;;;7.93;;
76204;SDS011;64986;55.672;37.628;2023-05-23T00:30:01;15.82;;;7.28;;
76204;SDS011;64986;55.672;37.628;2023-05-23T00:32:28;15.32;;;6.93;;
76204;SDS011;64986;55.672;37.628;2023-05-23T00:34:53;19.48;;;7.80;;
76204;SDS011;64986;55.672;37.628;2023-05-23T00:37:20;14.35;;;8.60;;
76204;SDS011;64986;55.672;37.628;2023-05-23T00:39:46;15.75;;;7.78;;
76204;SDS011;64986;55.672;37.628;2023-05-23T00:42:12;19.95;;;7.88;;
76204;SDS011;64986;55.672;37.628;2023-05-23T00:44:38;16.42;;;8.27;;
76204;SDS011;64986;55.672;37.628;2023-05-23T00:47:04;13.73;;;7.47;;
76204;SDS011;64986;55.672;37.628;2023-05-23T00:49:32;24.17;;;8.43;;
76204;SDS011;64986;55.672;37.628;2023-05-23T00:51:58;15.48;;;8.52;;
76204;SDS011;64986;55.672;37.628;2023-05-23T00:54:29;22.73;;;8.10;;
76204;SDS011;64986;55.672;37.628;2023-05-23T00:56:57;15.00;;;8.15;;
76204;SDS011;64986;55.672;37.628;2023-05-23T00:59:23;16.35;;;8.20;;
76204;SDS011;64986;55.672;37.628;2023-05-23T01:01:51;11.60;;;7.53;;
76204;SDS011;64986;55.672;37.628;2023-05-23T01:04:18;16.13;;;8.15;;
76204;SDS011;64986;55.672;37.628;2023-05-23T01:06:44;12.88;;;8.18;;
76204;SDS011;64986;55.672;37.628;2023-05-23T01:09:16;14.25;;;8.60;;
76204;SDS011;64986;55.672;37.628;2023-05-23T01:12:08;14.52;;;8.38;;
76204;SDS011;64986;55.672;37.628;2023-05-23T01:14:50;16.45;;;8.25;;
76204;SDS011;64986;55.672;37.628;2023-05-23T01:17:28;11.63;;;7.38;;
76204;SDS011;64986;55.672;37.628;2023-05-23T01:20:20;19.75;;;8.77;;
76204;SDS011;64986;55.672;37.628;2023-05-23T01:28:14;18.20;;;7.78;;
76204;SDS011;64986;55.672;37.628;2023-05-23T01:30:43;14.73;;;8.93;;
76204;SDS011;64986;55.672;37.628;2023-05-23T01:33:10;17.25;;;7.97;;
76204;SDS011;64986;55.672;37.628;2023-05-23T01:35:40;17.33;;;8.75;;
76204;SDS011;64986;55.672;37.628;2023-05-23T01:38:07;15.90;;;8.52;;
76204;SDS011;64986;55.672;37.628;2023-05-23T01:40:33;20.00;;;9.25;;
76204;SDS011;64986;55.672;37.628;2023-05-23T01:42:59;21.38;;;9.70;;
76204;SDS011;64986;55.672;37.628;2023-05-23T01:45:25;18.25;;;8.98;;
76204;SDS011;64986;55.672;37.628;2023-05-23T01:47:52;22.30;;;9.32;;
76204;SDS011;64986;55.672;37.628;2023-05-23T01:50:18;19.40;;;9.50;;
76204;SDS011;64986;55.672;37.628;2023-05-23T01:52:45;19.80;;;9.38;;
76204;SDS011;64986;55.672;37.628;2023-05-23T01:55:11;13.60;;;8.32;;
76204;SDS011;64986;55.672;37.628;2023-05-23T01:57:40;15.75;;;8.40;;
76204;SDS011;64986;55.672;37.628;2023-05-23T02:00:06;19.60;;;8.77;;
76204;SDS011;64986;55.672;37.628;2023-05-23T02:02:34;23.38;;;9.48;;
76204;SDS011;64986;55.672;37.628;2023-05-23T02:05:00;17.45;;;9.55;;
76204;SDS011;64986;55.672;37.628;2023-05-23T02:07:26;18.88;;;9.10;;
76204;SDS011;64986;55.672;37.628;2023-05-23T02:09:52;29.58;;;9.65;;
76204;SDS011;64986;55.672;37.628;2023-05-23T02:12:18;18.65;;;9.10;;
76204;SDS011;64986;55.672;37.628;2023-05-23T02:14:43;19.73;;;9.60;;
76204;SDS011;64986;55.672;37.628;2023-05-23T02:17:09;15.52;;;8.90;;
76204;SDS011;64986;55.672;37.628;2023-05-23T02:19:35;19.20;;;9.43;;
76204;SDS011;64986;55.672;37.628;2023-05-23T02:22:01;20.52;;;9.10;;
76204;SDS011;64986;55.672;37.628;2023-05-23T02:24:26;21.05;;;9.90;;
76204;SDS011;64986;55.672;37.628;2023-05-23T02:26:52;13.85;;;8.13;;
76204;SDS011;64986;55.672;37.628;2023-05-23T02:29:17;14.15;;;8.43;;
76204;SDS011;64986;55.672;37.628;2023-05-23T02:31:43;21.33;;;9.07;;
76204;SDS011;64986;55.672;37.628;2023-05-23T02:34:08;17.23;;;8.90;;
76204;SDS011;64986;55.672;37.628;2023-05-23T02:36:34;20.45;;;9.63;;
76204;SDS011;64986;55.672;37.628;2023-05-23T02:39:01;16.17;;;8.68;;
76204;SDS011;64986;55.672;37.628;2023-05-23T02:41:27;15.60;;;8.30;;
76204;SDS011;64986;55.672;37.628;2023-05-23T02:43:53;16.75;;;9.07;;
76204;SDS011;64986;55.672;37.628;2023-05-23T02:46:19;17.45;;;9.68;;
76204;SDS011;64986;55.672;37.628;2023-05-23T02:48:45;18.73;;;9.48;;
76204;SDS011;64986;55.672;37.628;2023-05-23T02:51:10;15.10;;;9.48;;
76204;SDS011;64986;55.672;37.628;2023-05-23T02:53:37;19.75;;;9.05;;
76204;SDS011;64986;55.672;37.628;2023-05-23T02:56:03;17.98;;;9.10;;
76204;SDS011;64986;55.672;37.628;2023-05-23T02:58:29;15.23;;;9.02;;
76204;SDS011;64986;55.672;37.628;2023-05-23T03:00:56;17.42;;;9.55;;
76204;SDS011;64986;55.672;37.628;2023-05-23T03:03:21;17.80;;;9.70;;
76204;SDS011;64986;55.672;37.628;2023-05-23T03:05:47;13.70;;;9.30;;
76204;SDS011;64986;55.672;37.628;2023-05-23T03:08:13;16.10;;;8.65;;
76204;SDS011;64986;55.672;37.628;2023-05-23T03:10:38;17.55;;;9.95;;
76204;SDS011;64986;55.672;37.628;2023-05-23T03:13:04;13.77;;;9.55;;
76204;SDS011;64986;55.672;37.628;2023-05-23T03:15:29;15.48;;;10.23;;
76204;SDS011;64986;55.672;37.628;2023-05-23T03:17:55;16.48;;;10.23;;
76204;SDS011;64986;55.672;37.628;2023-05-23T03:20:20;19.40;;;10.40;;
76204;SDS011;64986;55.672;37.628;2023-05-23T03:22:46;14.45;;;9.93;;
76204;SDS011;64986;55.672;37.628;2023-05-23T03:25:13;14.45;;;10.32;;
76204;SDS011;64986;55.672;37.628;2023-05-23T03:27:39;20.35;;;9.00;;
76204;SDS011;64986;55.672;37.628;2023-05-23T03:30:05;21.88;;;10.07;;
76204;SDS011;64986;55.672;37.628;2023-05-23T03:32:31;19.70;;;9.75;;
76204;SDS011;64986;55.672;37.628;2023-05-23T03:34:56;15.73;;;8.80;;
76204;SDS011;64986;55.672;37.628;2023-05-23T03:37:22;17.75;;;8.20;;
76204;SDS011;64986;55.672;37.628;2023-05-23T03:39:47;13.45;;;8.93;;
76204;SDS011;64986;55.672;37.628;2023-05-23T03:42:13;17.48;;;9.75;;
76204;SDS011;64986;55.672;37.628;2023-05-23T03:44:38;16.23;;;10.18;;
76204;SDS011;64986;55.672;37.628;2023-05-23T03:47:04;16.45;;;8.73;;
76204;SDS011;64986;55.672;37.628;2023-05-23T03:49:29;17.98;;;9.43;;
76204;SDS011;64986;55.672;37.628;2023-05-23T03:51:57;20.33;;;8.85;;
76204;SDS011;64986;55.672;37.628;2023-05-23T03:54:23;17.25;;;9.35;;
76204;SDS011;64986;55.672;37.628;2023-05-23T03:56:48;15.02;;;7.93;;
76204;SDS011;64986;55.672;37.628;2023-05-23T03:59:14;14.38;;;10.10;;
76204;SDS011;64986;55.672;37.628;2023-05-23T04:01:39;23.60;;;8.98;;
76204;SDS011;64986;55.672;37.628;2023-05-23T04:04:05;20.17;;;8.63;;
76204;SDS011;64986;55.672;37.628;2023-05-23T04:06:30;11.85;;;7.53;;
76204;SDS011;64986;55.672;37.628;2023-05-23T04:08:57;12.57;;;7.70;;
76204;SDS011;64986;55.672;37.628;2023-05-23T04:11:23;11.77;;;9.10;;
76204;SDS011;64986;55.672;37.628;2023-05-23T04:13:48;15.90;;;9.05;;
76204;SDS011;64986;55.672;37.628;2023-05-23T04:16:15;15.60;;;10.27;;
76204;SDS011;64986;55.672;37.628;2023-05-23T04:18:41;18.30;;;9.77;;
76204;SDS011;64986;55.672;37.628;2023-05-23T04:21:07;19.00;;;10.00;;
76204;SDS011;64986;55.672;37.628;2023-05-23T04:23:33;17.42;;;9.95;;
76204;SDS011;64986;55.672;37.628;2023-05-23T04:25:58;18.25;;;10.10;;
76204;SDS011;64986;55.672;37.628;2023-05-23T04:28:27;13.85;;;8.25;;
76204;SDS011;64986;55.672;37.628;2023-05-23T04:30:52;17.35;;;8.80;;
76204;SDS011;64986;55.672;37.628;2023-05-23T04:33:18;13.38;;;8.90;;
76204;SDS011;64986;55.672;37.628;2023-05-23T04:35:43;15.07;;;7.55;;
76204;SDS011;64986;55.672;37.628;2023-05-23T04:38:09;7.75;;;5.70;;
76204;SDS011;64986;55.672;37.628;2023-05-23T04:40:35;10.82;;;7.40;;
76204;SDS011;64986;55.672;37.628;2023-05-23T04:43:00;14.15;;;7.32;;
76204;SDS011;64986;55.672;37.628;2023-05-23T04:45:26;17.42;;;7.47;;
76204;SDS011;64986;55.672;37.628;2023-05-23T04:47:52;14.07;;;8.50;;
76204;SDS011;64986;55.672;37.628;2023-05-23T04:50:21;19.40;;;7.70;;
76204;SDS011;64986;55.672;37.628;2023-05-23T04:52:47;12.63;;;7.63;;
76204;SDS011;64986;55.672;37.628;2023-05-23T04:55:12;11.77;;;6.53;;
76204;SDS011;64986;55.672;37.628;2023-05-23T04:57:38;12.35;;;7.18;;
76204;SDS011;64986;55.672;37.628;2023-05-23T05:00:04;12.38;;;8.40;;
76204;SDS011;64986;55.672;37.628;2023-05-23T05:02:34;11.82;;;7.32;;
76204;SDS011;64986;55.672;37.628;2023-05-23T05:05:01;16.75;;;7.57;;
76204;SDS011;64986;55.672;37.628;2023-05-23T05:07:28;14.45;;;7.25;;
76204;SDS011;64986;55.672;37.628;2023-05-23T05:09:54;13.57;;;7.32;;
76204;SDS011;64986;55.672;37.628;2023-05-23T05:12:20;11.05;;;8.15;;
76204;SDS011;64986;55.672;37.628;2023-05-23T05:14:45;11.90;;;8.43;;
76204;SDS011;64986;55.672;37.628;2023-05-23T05:17:11;14.90;;;9.07;;
76204;SDS011;64986;55.672;37.628;2023-05-23T05:19:36;12.77;;;8.40;;
76204;SDS011;64986;55.672;37.628;2023-05-23T05:22:02;16.02;;;8.23;;
76204;SDS011;64986;55.672;37.628;2023-05-23T05:24:28;12.75;;;8.00;;
76204;SDS011;64986;55.672;37.628;2023-05-23T05:26:53;15.95;;;7.13;;
76204;SDS011;64986;55.672;37.628;2023-05-23T05:29:19;15.13;;;6.85;;
76204;SDS011;64986;55.672;37.628;2023-05-23T05:31:45;12.50;;;5.90;;
76204;SDS011;64986;55.672;37.628;2023-05-23T05:34:11;12.20;;;6.10;;
76204;SDS011;64986;55.672;37.628;2023-05-23T05:36:37;13.25;;;7.20;;
76204;SDS011;64986;55.672;37.628;2023-05-23T05:39:09;14.48;;;8.13;;
76204;SDS011;64986;55.672;37.628;2023-05-23T05:41:35;17.40;;;8.20;;
76204;SDS011;64986;55.672;37.628;2023-05-23T05:44:01;17.10;;;8.50;;
76204;SDS011;64986;55.672;37.628;2023-05-23T05:46:26;12.13;;;7.28;;
76204;SDS011;64986;55.672;37.628;2023-05-23T05:48:52;11.35;;;6.40;;
76204;SDS011;64986;55.672;37.628;2023-05-23T05:51:17;10.63;;;6.28;;
76204;SDS011;64986;55.672;37.628;2023-05-23T05:53:43;13.93;;;7.05;;
76204;SDS011;64986;55.672;37.628;2023-05-23T05:56:08;11.68;;;7.30;;
76204;SDS011;64986;55.672;37.628;2023-05-23T05:58:34;12.25;;;7.45;;
76204;SDS011;64986;55.672;37.628;2023-05-23T06:01:00;14.80;;;9.63;;
76204;SDS011;64986;55.672;37.628;2023-05-23T06:03:25;19.88;;;8.48;;
76204;SDS011;64986;55.672;37.628;2023-05-23T06:05:51;11.13;;;7.05;;
76204;SDS011;64986;55.672;37.628;2023-05-23T06:08:17;9.25;;;6.72;;
76204;SDS011;64986;55.672;37.628;2023-05-23T06:10:42;11.88;;;7.13;;
76204;SDS011;64986;55.672;37.628;2023-05-23T06:13:09;11.32;;;6.97;;
76204;SDS011;64986;55.672;37.628;2023-05-23T06:15:34;10.93;;;6.13;;
76204;SDS011;64986;55.672;37.628;2023-05-23T06:18:00;12.98;;;6.55;;
76204;SDS011;64986;55.672;37.628;2023-05-23T06:20:25;10.65;;;6.40;;
76204;SDS011;64986;55.672;37.628;2023-05-23T06:22:51;14.82;;;6.70;;
76204;SDS011;64986;55.672;37.628;2023-05-23T06:25:16;13.10;;;7.18;;
76204;SDS011;64986;55.672;37.628;2023-05-23T06:27:42;15.52;;;6.78;;
76204;SDS011;64986;55.672;37.628;2023-05-23T06:30:08;11.25;;;6.00;;
76204;SDS011;64986;55.672;37.628;2023-05-23T06:32:34;11.07;;;6.53;;
76204;SDS011;64986;55.672;37.628;2023-05-23T06:35:00;11.25;;;6.80;;
76204;SDS011;64986;55.672;37.628;2023-05-23T06:37:26;9.73;;;5.68;;
76204;SDS011;64986;55.672;37.628;2023-05-23T06:39:52;11.68;;;6.25;;
76204;SDS011;64986;55.672;37.628;2023-05-23T06:42:17;8.68;;;5.47;;
76204;SDS011;64986;55.672;37.628;2023-05-23T06:44:43;8.88;;;6.47;;
76204;SDS011;64986;55.672;37.628;2023-05-23T06:47:08;9.30;;;6.80;;
76204;SDS011;64986;55.672;37.628;2023-05-23T06:49:34;13.23;;;6.45;;
76204;SDS011;64986;55.672;37.628;2023-05-23T06:51:59;12.30;;;5.80;;
76204;SDS011;64986;55.672;37.628;2023-05-23T06:54:25;9.48;;;5.22;;
76204;SDS011;64986;55.672;37.628;2023-05-23T06:56:50;12.25;;;6.15;;
76204;SDS011;64986;55.672;37.628;2023-05-23T06:59:16;10.82;;;5.10;;
76204;SDS011;64986;55.672;37.628;2023-05-23T07:01:41;13.07;;;6.30;;
76204;SDS011;64986;55.672;37.628;2023-05-23T07:04:07;8.30;;;5.55;;
76204;SDS011;64986;55.672;37.628;2023-05-23T07:06:33;11.27;;;5.38;;
76204;SDS011;64986;55.672;37.628;2023-05-23T07:09:00;10.07;;;4.75;;
76204;SDS011;64986;55.672;37.628;2023-05-23T07:11:25;8.75;;;5.50;;
76204;SDS011;64986;55.672;37.628;2023-05-23T07:13:51;8.63;;;4.43;;
76204;SDS011;64986;55.672;37.628;2023-05-23T07:16:17;6.35;;;3.92;;
76204;SDS011;64986;55.672;37.628;2023-05-23T07:18:42;13.18;;;4.93;;
76204;SDS011;64986;55.672;37.628;2023-05-23T07:21:08;10.77;;;4.20;;
76204;SDS011;64986;55.672;37.628;2023-05-23T07:23:33;10.40;;;4.82;;
76204;SDS011;64986;55.672;37.628;2023-05-23T07:25:59;11.65;;;4.28;;
76204;SDS011;64986;55.672;37.628;2023-05-23T07:28:26;8.90;;;4.97;;
76204;SDS011;64986;55.672;37.628;2023-05-23T07:30:52;6.13;;;4.60;;
76204;SDS011;64986;55.672;37.628;2023-05-23T07:33:17;8.88;;;5.10;;
76204;SDS011;64986;55.672;37.628;2023-05-23T07:35:43;7.57;;;4.43;;
76204;SDS011;64986;55.672;37.628;2023-05-23T07:38:08;8.63;;;5.40;;
76204;SDS011;64986;55.672;37.628;2023-05-23T07:40:34;9.15;;;6.05;;
76204;SDS011;64986;55.672;37.628;2023-05-23T07:43:01;7.35;;;5.43;;
76204;SDS011;64986;55.672;37.628;2023-05-23T07:45:27;14.95;;;6.93;;
76204;SDS011;64986;55.672;37.628;2023-05-23T07:47:52;9.13;;;5.40;;
76204;SDS011;64986;55.672;37.628;2023-05-23T07:50:18;9.18;;;4.88;;
76204;SDS011;64986;55.672;37.628;2023-05-23T07:52:44;14.85;;;4.97;;
76204;SDS011;64986;55.672;37.628;2023-05-23T07:55:09;8.98;;;4.78;;
76204;SDS011;64986;55.672;37.628;2023-05-23T07:57:35;11.52;;;4.53;;
76204;SDS011;64986;55.672;37.628;2023-05-23T08:00:00;7.38;;;4.07;;
76204;SDS011;64986;55.672;37.628;2023-05-23T08:02:26;7.13;;;4.70;;
76204;SDS011;64986;55.672;37.628;2023-05-23T08:04:51;9.65;;;5.05;;
76204;SDS011;64986;55.672;37.628;2023-05-23T08:07:17;9.63;;;5.50;;
76204;SDS011;64986;55.672;37.628;2023-05-23T08:09:43;9.30;;;5.40;;
76204;SDS011;64986;55.672;37.628;2023-05-23T08:12:09;9.82;;;4.97;;
76204;SDS011;64986;55.672;37.628;2023-05-23T08:14:35;10.45;;;4.53;;
76204;SDS011;64986;55.672;37.628;2023-05-23T08:17:00;10.45;;;4.15;;
76204;SDS011;64986;55.672;37.628;2023-05-23T08:19:26;9.65;;;3.88;;
76204;SDS011;64986;55.672;37.628;2023-05-23T08:21:52;8.85;;;4.38;;
76204;SDS011;64986;55.672;37.628;2023-05-23T08:24:18;7.88;;;3.55;;
76204;SDS011;64986;55.672;37.628;2023-05-23T08:26:45;10.05;;;4.75;;
76204;SDS011;64986;55.672;37.628;2023-05-23T08:29:11;6.85;;;4.25;;
76204;SDS011;64986;55.672;37.628;2023-05-23T08:31:36;6.97;;;4.25;;
76204;SDS011;64986;55.672;37.628;2023-05-23T08:34:02;7.30;;;3.88;;
76204;SDS011;64986;55.672;37.628;2023-05-23T08:36:28;7.47;;;3.42;;
76204;SDS011;64986;55.672;37.628;2023-05-23T08:38:54;14.73;;;5.43;;
76204;SDS011;64986;55.672;37.628;2023-05-23T08:41:20;9.05;;;4.40;;
76204;SDS011;64986;55.672;37.628;2023-05-23T08:43:47;10.60;;;5.32;;
76204;SDS011;64986;55.672;37.628;2023-05-23T08:46:13;12.32;;;4.75;;
76204;SDS011;64986;55.672;37.628;2023-05-23T08:48:39;9.88;;;4.40;;
76204;SDS011;64986;55.672;37.628;2023-05-23T08:51:08;9.30;;;4.20;;
76204;SDS011;64986;55.672;37.628;2023-05-23T08:53:37;7.43;;;3.97;;
76204;SDS011;64986;55.672;37.628;2023-05-23T08:56:07;7.43;;;4.88;;
76204;SDS011;64986;55.672;37.628;2023-05-23T08:58:33;7.70;;;4.05;;
76204;SDS011;64986;55.672;37.628;2023-05-23T09:00:59;9.48;;;5.05;;
76204;SDS011;64986;55.672;37.628;2023-05-23T09:03:26;8.70;;;4.07;;
76204;SDS011;64986;55.672;37.628;2023-05-23T09:05:54;9.75;;;4.80;;
76204;SDS011;64986;55.672;37.628;2023-05-23T09:08:20;9.93;;;3.88;;
76204;SDS011;64986;55.672;37.628;2023-05-23T09:10:48;7.90;;;3.90;;
76204;SDS011;64986;55.672;37.628;2023-05-23T09:13:14;5.55;;;3.78;;
76204;SDS011;64986;55.672;37.628;2023-05-23T09:15:59;9.32;;;3.58;;
76204;SDS011;64986;55.672;37.628;2023-05-23T09:18:33;7.93;;;3.60;;
76204;SDS011;64986;55.672;37.628;2023-05-23T09:21:01;9.38;;;3.50;;
76204;SDS011;64986;55.672;37.628;2023-05-23T09:23:33;5.60;;;3.85;;
76204;SDS011;64986;55.672;37.628;2023-05-23T09:26:09;4.18;;;3.13;;
76204;SDS011;64986;55.672;37.628;2023-05-23T09:28:37;7.40;;;2.83;;
76204;SDS011;64986;55.672;37.628;2023-05-23T09:31:05;4.43;;;3.05;;
76204;SDS011;64986;55.672;37.628;2023-05-23T09:33:37;5.18;;;2.65;;
76204;SDS011;64986;55.672;37.628;2023-05-23T09:36:05;6.25;;;3.10;;
76204;SDS011;64986;55.672;37.628;2023-05-23T09:38:31;10.43;;;3.90;;
76204;SDS011;64986;55.672;37.628;2023-05-23T09:41:02;7.80;;;3.70;;
76204;SDS011;64986;55.672;37.628;2023-05-23T09:43:27;8.30;;;4.18;;
76204;SDS011;64986;55.672;37.628;2023-05-23T09:45:53;6.63;;;3.97;;
76204;SDS011;64986;55.672;37.628;2023-05-23T09:48:21;7.53;;;4.07;;
76204;SDS011;64986;55.672;37.628;2023-05-23T09:50:53;10.73;;;4.60;;
76204;SDS011;64986;55.672;37.628;2023-05-23T09:53:18;8.50;;;4.20;;
76204;SDS011;64986;55.672;37.628;2023-05-23T09:55:47;9.32;;;4.05;;
76204;SDS011;64986;55.672;37.628;2023-05-23T09:58:16;8.23;;;3.70;;
76204;SDS011;64986;55.672;37.628;2023-05-23T10:00:45;11.60;;;4.75;;
76204;SDS011;64986;55.672;37.628;2023-05-23T10:03:11;5.70;;;4.20;;
76204;SDS011;64986;55.672;37.628;2023-05-23T10:05:44;7.10;;;4.15;;
76204;SDS011;64986;55.672;37.628;2023-05-23T10:08:13;7.57;;;4.35;;
76204;SDS011;64986;55.672;37.628;2023-05-23T10:13:42;7.00;;;3.60;;
76204;SDS011;64986;55.672;37.628;2023-05-23T10:16:18;6.28;;;3.55;;
76204;SDS011;64986;55.672;37.628;2023-05-23T10:18:49;6.85;;;4.22;;
76204;SDS011;64986;55.672;37.628;2023-05-23T10:21:34;8.82;;;3.90;;
76204;SDS011;64986;55.672;37.628;2023-05-23T10:24:04;7.60;;;4.28;;
76204;SDS011;64986;55.672;37.628;2023-05-23T10:26:32;7.65;;;4.80;;
76204;SDS011;64986;55.672;37.628;2023-05-23T10:28:57;11.70;;;4.82;;
76204;SDS011;64986;55.672;37.628;2023-05-23T10:31:25;7.70;;;4.72;;
76204;SDS011;64986;55.672;37.628;2023-05-23T10:33:54;9.82;;;5.53;;
76204;SDS011;64986;55.672;37.628;2023-05-23T10:37:11;7.40;;;5.07;;
76204;SDS011;64986;55.672;37.628;2023-05-23T10:42:27;10.13;;;5.15;;
76204;SDS011;64986;55.672;37.628;2023-05-23T10:45:18;8.70;;;5.65;;
76204;SDS011;64986;55.672;37.628;2023-05-23T10:47:46;9.02;;;5.30;;
76204;SDS011;64986;55.672;37.628;2023-05-23T10:50:13;9.02;;;6.35;;
76204;SDS011;64986;55.672;37.628;2023-05-23T10:52:55;11.57;;;6.68;;
76204;SDS011;64986;55.672;37.628;2023-05-23T10:55:21;13.25;;;6.20;;
76204;SDS011;64986;55.672;37.628;2023-05-23T10:57:46;12.57;;;5.90;;
76204;SDS011;64986;55.672;37.628;2023-05-23T11:00:36;7.35;;;5.20;;
76204;SDS011;64986;55.672;37.628;2023-05-23T11:03:03;12.52;;;6.80;;
76204;SDS011;64986;55.672;37.628;2023-05-23T11:05:33;8.52;;;5.30;;
76204;SDS011;64986;55.672;37.628;2023-05-23T11:08:10;7.72;;;5.68;;
76204;SDS011;64986;55.672;37.628;2023-05-23T11:10:51;9.48;;;5.78;;
76204;SDS011;64986;55.672;37.628;2023-05-23T11:13:24;10.73;;;7.55;;
76204;SDS011;64986;55.672;37.628;2023-05-23T11:15:50;11.80;;;6.78;;
76204;SDS011;64986;55.672;37.628;2023-05-23T11:18:19;9.73;;;6.75;;
76204;SDS011;64986;55.672;37.628;2023-05-23T11:20:53;10.25;;;6.57;;
76204;SDS011;64986;55.672;37.628;2023-05-23T11:23:19;7.88;;;5.97;;
76204;SDS011;64986;55.672;37.628;2023-05-23T11:25:50;13.90;;;8.30;;
76204;SDS011;64986;55.672;37.628;2023-05-23T11:28:17;12.90;;;6.82;;
76204;SDS011;64986;55.672;37.628;2023-05-23T11:30:43;9.18;;;6.70;;
76204;SDS011;64986;55.672;37.628;2023-05-23T11:33:12;13.43;;;7.60;;
76204;SDS011;64986;55.672;37.628;2023-05-23T11:35:40;9.98;;;7.40;;
76204;SDS011;64986;55.672;37.628;2023-05-23T11:38:14;10.48;;;7.13;;
76204;SDS011;64986;55.672;37.628;2023-05-23T11:40:41;7.97;;;5.90;;
76204;SDS011;64986;55.672;37.628;2023-05-23T11:43:12;10.07;;;7.75;;
76204;SDS011;64986;55.672;37.628;2023-05-23T11:45:39;10.57;;;7.43;;
76204;SDS011;64986;55.672;37.628;2023-05-23T11:48:15;9.18;;;7.07;;
76204;SDS011;64986;55.672;37.628;2023-05-23T11:50:43;11.38;;;7.72;;
76204;SDS011;64986;55.672;37.628;2023-05-23T11:53:16;10.57;;;7.80;;
76204;SDS011;64986;55.672;37.628;2023-05-23T11:55:48;17.00;;;10.18;;
76204;SDS011;64986;55.672;37.628;2023-05-23T11:58:25;8.90;;;6.38;;
76204;SDS011;64986;55.672;37.628;2023-05-23T12:01:03;9.20;;;6.07;;
76204;SDS011;64986;55.672;37.628;2023-05-23T12:03:31;11.07;;;6.03;;
76204;SDS011;64986;55.672;37.628;2023-05-23T12:05:57;8.43;;;6.07;;
76204;SDS011;64986;55.672;37.628;2023-05-23T12:08:23;10.45;;;6.15;;
76204;SDS011;64986;55.672;37.628;2023-05-23T12:11:01;11.23;;;6.15;;
76204;SDS011;64986;55.672;37.628;2023-05-23T12:13:27;13.05;;;6.20;;
76204;SDS011;64986;55.672;37.628;2023-05-23T12:16:02;8.90;;;5.53;;
76204;SDS011;64986;55.672;37.628;2023-05-23T12:18:31;10.13;;;5.75;;
76204;SDS011;64986;55.672;37.628;2023-05-23T12:21:00;7.82;;;5.68;;
76204;SDS011;64986;55.672;37.628;2023-05-23T12:23:27;10.05;;;6.18;;
76204;SDS011;64986;55.672;37.628;2023-05-23T12:25:54;11.85;;;5.82;;
76204;SDS011;64986;55.672;37.628;2023-05-23T12:28:32;10.75;;;5.22;;
76204;SDS011;64986;55.672;37.628;2023-05-23T12:31:15;10.25;;;5.70;;
76204;SDS011;64986;55.672;37.628;2023-05-23T12:36:12;6.60;;;4.68;;
76204;SDS011;64986;55.672;37.628;2023-05-23T12:38:38;8.30;;;5.28;;
76204;SDS011;64986;55.672;37.628;2023-05-23T12:41:11;11.35;;;5.20;;
76204;SDS011;64986;55.672;37.628;2023-05-23T12:43:40;10.18;;;6.20;;
76204;SDS011;64986;55.672;37.628;2023-05-23T12:46:15;10.15;;;5.72;;
76204;SDS011;64986;55.672;37.628;2023-05-23T12:48:40;8.55;;;5.03;;
76204;SDS011;64986;55.672;37.628;2023-05-23T12:51:06;11.95;;;4.85;;
76204;SDS011;64986;55.672;37.628;2023-05-23T12:53:31;8.45;;;5.30;;
76204;SDS011;64986;55.672;37.628;2023-05-23T12:55:57;9.57;;;5.05;;
76204;SDS011;64986;55.672;37.628;2023-05-23T12:58:23;13.60;;;6.15;;
76204;SDS011;64986;55.672;37.628;2023-05-23T13:00:49;8.52;;;5.43;;
76204;SDS011;64986;55.672;37.628;2023-05-23T13:03:14;11.05;;;5.40;;
76204;SDS011;64986;55.672;37.628;2023-05-23T13:05:40;8.07;;;5.43;;
76204;SDS011;64986;55.672;37.628;2023-05-23T13:08:06;12.32;;;5.97;;
76204;SDS011;64986;55.672;37.628;2023-05-23T13:10:32;12.18;;;5.80;;
76204;SDS011;64986;55.672;37.628;2023-05-23T13:12:58;14.05;;;9.52;;
76204;SDS011;64986;55.672;37.628;2023-05-23T13:15:23;9.82;;;5.82;;
76204;SDS011;64986;55.672;37.628;2023-05-23T13:17:49;10.35;;;5.88;;
76204;SDS011;64986;55.672;37.628;2023-05-23T13:20:14;12.82;;;5.05;;
76204;SDS011;64986;55.672;37.628;2023-05-23T13:22:40;9.50;;;4.38;;
76204;SDS011;64986;55.672;37.628;2023-05-23T13:25:06;6.50;;;4.47;;
76204;SDS011;64986;55.672;37.628;2023-05-23T13:27:32;12.18;;;5.18;;
76204;SDS011;64986;55.672;37.628;2023-05-23T13:29:58;8.68;;;4.85;;
76204;SDS011;64986;55.672;37.628;2023-05-23T13:32:24;11.88;;;4.97;;
76204;SDS011;64986;55.672;37.628;2023-05-23T13:34:50;6.85;;;4.63;;
76204;SDS011;64986;55.672;37.628;2023-05-23T13:37:16;9.18;;;5.50;;
76204;SDS011;64986;55.672;37.628;2023-05-23T13:39:41;12.52;;;5.53;;
76204;SDS011;64986;55.672;37.628;2023-05-23T13:42:07;15.95;;;9.98;;
76204;SDS011;64986;55.672;37.628;2023-05-23T13:44:33;16.00;;;5.85;;
76204;SDS011;64986;55.672;37.628;2023-05-23T13:47:08;14.00;;;6.03;;
76204;SDS011;64986;55.672;37.628;2023-05-23T13:49:38;13.43;;;5.82;;
76204;SDS011;64986;55.672;37.628;2023-05-23T13:52:04;11.88;;;5.82;;
76204;SDS011;64986;55.672;37.628;2023-05-23T13:54:30;15.30;;;6.03;;
76204;SDS011;64986;55.672;37.628;2023-05-23T13:56:56;12.15;;;6.10;;
76204;SDS011;64986;55.672;37.628;2023-05-23T13:59:22;17.27;;;5.85;;
76204;SDS011;64986;55.672;37.628;2023-05-23T14:01:50;11.75;;;5.18;;
76204;SDS011;64986;55.672;37.628;2023-05-23T14:04:15;9.55;;;5.28;;
76204;SDS011;64986;55.672;37.628;2023-05-23T14:06:41;16.40;;;6.78;;
76204;SDS011;64986;55.672;37.628;2023-05-23T14:09:06;10.23;;;6.00;;
76204;SDS011;64986;55.672;37.628;2023-05-23T14:11:32;17.98;;;6.82;;
76204;SDS011;64986;55.672;37.628;2023-05-23T14:13:57;15.70;;;6.90;;
76204;SDS011;64986;55.672;37.628;2023-05-23T14:16:23;13.05;;;7.72;;
76204;SDS011;64986;55.672;37.628;2023-05-23T14:18:48;17.35;;;6.30;;
76204;SDS011;64986;55.672;37.628;2023-05-23T14:21:14;15.85;;;6.95;;
76204;SDS011;64986;55.672;37.628;2023-05-23T14:23:40;12.80;;;5.93;;
76204;SDS011;64986;55.672;37.628;2023-05-23T14:26:05;14.98;;;5.60;;
76204;SDS011;64986;55.672;37.628;2023-05-23T14:28:31;14.02;;;5.65;;
76204;SDS011;64986;55.672;37.628;2023-05-23T14:30:56;14.90;;;6.03;;
76204;SDS011;64986;55.672;37.628;2023-05-23T14:33:23;12.40;;;5.22;;
76204;SDS011;64986;55.672;37.628;2023-05-23T14:35:49;9.82;;;4.95;;
76204;SDS011;64986;55.672;37.628;2023-05-23T14:38:16;17.85;;;6.18;;
76204;SDS011;64986;55.672;37.628;2023-05-23T14:40:42;10.52;;;4.93;;